Belle Vernon, PA

11:33 AM EDT on July 22, 2017 (GMT -0400)
Pittsburgh International | | Change Station

Elev 1204 ft 40.49 °N, 80.23 °W | Updated 42 minutes ago

Rain
Rain
73 °F
Feels Like 73 °F
N
8
Wind Variable Wind from South

Today
High -- | Low -- °F
--% Chance of Precip.
Yesterday
High -- | Low -- °F
Precip. -- in
Pressure 29.90 in
Visibility 4.0 miles
Clouds Few 900 ft
Scattered Clouds 5000 ft
Overcast 10000 ft
Dew Point 71 °F
Humidity 93%
Rainfall 0.34 in
Snow Depth Not available.
6:08 AM 8:42 PM
Waning Crescent, 1% visible
METAR KPIT 221451Z 19007KT 4SM -RA BR FEW009 SCT050 OVC100 23/22 A2990 RMK AO2 LTG DSNT E AND SE RAB00 TSB1357E42 SLP123 P0034 60034 T02280217 58013
Pressure 29.90 in
Visibility 4.0 miles
Clouds Few 900 ft
Scattered Clouds 5000 ft
Overcast 10000 ft
Dew Point 71 °F
Humidity 93%
Rainfall 0.34 in
Snow Depth Not available.
6:08 AM 8:42 PM
Waning Crescent, 1% visible
METAR KPIT 221451Z 19007KT 4SM -RA BR FEW009 SCT050 OVC100 23/22 A2990 RMK AO2 LTG DSNT E AND SE RAB00 TSB1357E42 SLP123 P0034 60034 T02280217 58013

Get Severe Weather Alerts

Thanks for signing up!

Be on the lookout for a verification email in your inbox.

You'll start receiving the daily forecast at 6 AM.

×

10-Day Weather Forecast

Almanac

Astronomy

Jul. 22, 2017 Rise Set
Actual Time
Civil Twilight
Nautical Twilight
Astronomical Twilight
Moon
Length of Visible Light
Length of Day
Tomorrow will be .
, % of the Moon is Illuminated

Today's Extremes

State Highs State Lows

Community

WunderPhotos

Category 6

Welcome to Category 6. This is the collective home for Weather Underground's featured writeups by Dr. Jeff Masters (right), Bob Henson (left), Chris Burt, and other regular contributors.

Nearby

Air Quality

  Air Quality AQ Index Pollutant
Not available.

Snow Depth

Station Depth Elevation

Earthquake Activity

City Distance Mag. Time & Date
Minimum magnitude displayed is 2.5.

Coastal Water Temperatures

Place Temperature

Stations

Nearby Weather Stations

Station Location Temp. Windchill Dew Point Humidity Wind Precip. Elev Updated Type
                   

Watches & Warnings

There are currently no watches in effect.